sensor_id;sensor_type;location;lat;lon;timestamp;P1;durP1;ratioP1;P2;durP2;ratioP2
43809;SDS011;29440;48.208;11.162;2023-12-28T00:00:48;4.80;;;1.30;;
43809;SDS011;29440;48.208;11.162;2023-12-28T00:03:14;2.85;;;1.50;;
43809;SDS011;29440;48.208;11.162;2023-12-28T00:05:39;2.67;;;1.20;;
43809;SDS011;29440;48.208;11.162;2023-12-28T00:08:05;4.50;;;1.33;;
43809;SDS011;29440;48.208;11.162;2023-12-28T00:10:31;2.78;;;1.20;;
43809;SDS011;29440;48.208;11.162;2023-12-28T00:12:57;4.57;;;1.40;;
43809;SDS011;29440;48.208;11.162;2023-12-28T00:15:23;5.00;;;1.92;;
43809;SDS011;29440;48.208;11.162;2023-12-28T00:17:48;2.83;;;1.40;;
43809;SDS011;29440;48.208;11.162;2023-12-28T00:20:14;3.67;;;1.30;;
43809;SDS011;29440;48.208;11.162;2023-12-28T00:22:40;4.65;;;1.58;;
43809;SDS011;29440;48.208;11.162;2023-12-28T00:25:05;2.85;;;1.23;;
43809;SDS011;29440;48.208;11.162;2023-12-28T00:27:31;3.10;;;1.38;;
43809;SDS011;29440;48.208;11.162;2023-12-28T00:30:02;3.20;;;1.55;;
43809;SDS011;29440;48.208;11.162;2023-12-28T00:32:29;4.45;;;1.65;;
43809;SDS011;29440;48.208;11.162;2023-12-28T00:34:55;3.63;;;1.58;;
43809;SDS011;29440;48.208;11.162;2023-12-28T00:37:21;3.85;;;1.40;;
43809;SDS011;29440;48.208;11.162;2023-12-28T00:39:46;4.03;;;1.55;;
43809;SDS011;29440;48.208;11.162;2023-12-28T00:42:14;2.25;;;1.10;;
43809;SDS011;29440;48.208;11.162;2023-12-28T00:44:40;2.95;;;1.52;;
43809;SDS011;29440;48.208;11.162;2023-12-28T00:47:06;3.22;;;1.55;;
43809;SDS011;29440;48.208;11.162;2023-12-28T00:49:32;4.43;;;2.05;;
43809;SDS011;29440;48.208;11.162;2023-12-28T00:51:58;3.60;;;1.80;;
43809;SDS011;29440;48.208;11.162;2023-12-28T00:54:23;7.13;;;1.95;;
43809;SDS011;29440;48.208;11.162;2023-12-28T00:56:49;3.88;;;1.80;;
43809;SDS011;29440;48.208;11.162;2023-12-28T00:59:14;5.68;;;2.25;;
43809;SDS011;29440;48.208;11.162;2023-12-28T01:01:40;4.20;;;1.80;;
43809;SDS011;29440;48.208;11.162;2023-12-28T01:04:06;4.35;;;2.22;;
43809;SDS011;29440;48.208;11.162;2023-12-28T01:06:31;4.45;;;2.10;;
43809;SDS011;29440;48.208;11.162;2023-12-28T01:08:57;4.72;;;1.98;;
43809;SDS011;29440;48.208;11.162;2023-12-28T01:11:22;4.50;;;2.20;;
43809;SDS011;29440;48.208;11.162;2023-12-28T01:13:48;4.50;;;2.20;;
43809;SDS011;29440;48.208;11.162;2023-12-28T01:16:13;5.05;;;1.90;;
43809;SDS011;29440;48.208;11.162;2023-12-28T01:18:39;4.30;;;1.40;;
43809;SDS011;29440;48.208;11.162;2023-12-28T01:21:05;3.15;;;1.45;;
43809;SDS011;29440;48.208;11.162;2023-12-28T01:23:31;4.32;;;1.42;;
43809;SDS011;29440;48.208;11.162;2023-12-28T01:25:57;2.85;;;0.93;;
43809;SDS011;29440;48.208;11.162;2023-12-28T01:28:22;2.47;;;1.00;;
43809;SDS011;29440;48.208;11.162;2023-12-28T01:30:48;3.40;;;0.90;;
43809;SDS011;29440;48.208;11.162;2023-12-28T01:33:14;1.85;;;0.80;;
43809;SDS011;29440;48.208;11.162;2023-12-28T01:35:40;2.30;;;0.93;;
43809;SDS011;29440;48.208;11.162;2023-12-28T01:38:06;3.60;;;1.35;;
43809;SDS011;29440;48.208;11.162;2023-12-28T01:40:31;2.42;;;1.00;;
43809;SDS011;29440;48.208;11.162;2023-12-28T01:42:57;3.65;;;1.15;;
43809;SDS011;29440;48.208;11.162;2023-12-28T01:45:23;1.83;;;0.70;;
43809;SDS011;29440;48.208;11.162;2023-12-28T01:47:48;3.05;;;1.10;;
43809;SDS011;29440;48.208;11.162;2023-12-28T01:50:15;2.65;;;0.82;;
43809;SDS011;29440;48.208;11.162;2023-12-28T01:52:41;3.40;;;0.70;;
43809;SDS011;29440;48.208;11.162;2023-12-28T01:55:07;3.13;;;1.20;;
43809;SDS011;29440;48.208;11.162;2023-12-28T01:57:33;3.13;;;1.10;;
43809;SDS011;29440;48.208;11.162;2023-12-28T01:59:59;1.85;;;1.02;;
43809;SDS011;29440;48.208;11.162;2023-12-28T02:02:26;3.72;;;1.13;;
43809;SDS011;29440;48.208;11.162;2023-12-28T02:04:52;2.00;;;1.08;;
43809;SDS011;29440;48.208;11.162;2023-12-28T02:07:18;3.53;;;1.25;;
43809;SDS011;29440;48.208;11.162;2023-12-28T02:09:46;2.92;;;1.10;;
43809;SDS011;29440;48.208;11.162;2023-12-28T02:12:12;2.83;;;0.90;;
43809;SDS011;29440;48.208;11.162;2023-12-28T02:14:38;2.28;;;0.88;;
43809;SDS011;29440;48.208;11.162;2023-12-28T02:17:04;2.50;;;0.90;;
43809;SDS011;29440;48.208;11.162;2023-12-28T02:22:19;2.65;;;0.70;;
43809;SDS011;29440;48.208;11.162;2023-12-28T02:27:32;4.60;;;0.82;;
43809;SDS011;29440;48.208;11.162;2023-12-28T02:30:03;1.77;;;0.70;;
43809;SDS011;29440;48.208;11.162;2023-12-28T02:35:31;2.58;;;1.00;;
43809;SDS011;29440;48.208;11.162;2023-12-28T02:37:59;3.38;;;1.27;;
43809;SDS011;29440;48.208;11.162;2023-12-28T02:40:30;2.03;;;0.98;;
43809;SDS011;29440;48.208;11.162;2023-12-28T02:43:02;1.45;;;0.70;;
43809;SDS011;29440;48.208;11.162;2023-12-28T02:45:28;2.30;;;0.90;;
43809;SDS011;29440;48.208;11.162;2023-12-28T02:47:54;2.92;;;0.85;;
43809;SDS011;29440;48.208;11.162;2023-12-28T02:50:19;2.38;;;0.90;;
43809;SDS011;29440;48.208;11.162;2023-12-28T02:52:45;1.30;;;0.68;;
43809;SDS011;29440;48.208;11.162;2023-12-28T02:55:11;2.05;;;0.85;;
43809;SDS011;29440;48.208;11.162;2023-12-28T02:57:37;1.35;;;0.73;;
43809;SDS011;29440;48.208;11.162;2023-12-28T03:00:06;2.15;;;1.00;;
43809;SDS011;29440;48.208;11.162;2023-12-28T03:02:34;2.95;;;1.30;;
43809;SDS011;29440;48.208;11.162;2023-12-28T03:05:02;2.53;;;0.90;;
43809;SDS011;29440;48.208;11.162;2023-12-28T03:07:30;2.78;;;0.82;;
43809;SDS011;29440;48.208;11.162;2023-12-28T03:09:56;2.20;;;0.82;;
43809;SDS011;29440;48.208;11.162;2023-12-28T03:12:22;2.53;;;0.90;;
43809;SDS011;29440;48.208;11.162;2023-12-28T03:14:48;2.45;;;1.00;;
43809;SDS011;29440;48.208;11.162;2023-12-28T03:17:13;1.45;;;0.90;;
43809;SDS011;29440;48.208;11.162;2023-12-28T03:19:39;1.75;;;0.98;;
43809;SDS011;29440;48.208;11.162;2023-12-28T03:22:05;2.55;;;1.25;;
43809;SDS011;29440;48.208;11.162;2023-12-28T03:24:30;4.55;;;1.25;;
43809;SDS011;29440;48.208;11.162;2023-12-28T03:26:56;3.55;;;1.20;;
43809;SDS011;29440;48.208;11.162;2023-12-28T03:29:21;2.40;;;1.10;;
43809;SDS011;29440;48.208;11.162;2023-12-28T03:31:47;2.85;;;1.23;;
43809;SDS011;29440;48.208;11.162;2023-12-28T03:34:13;2.63;;;1.20;;
43809;SDS011;29440;48.208;11.162;2023-12-28T03:36:39;3.00;;;1.17;;
43809;SDS011;29440;48.208;11.162;2023-12-28T03:39:05;5.05;;;1.20;;
43809;SDS011;29440;48.208;11.162;2023-12-28T03:41:30;3.70;;;1.02;;
43809;SDS011;29440;48.208;11.162;2023-12-28T03:43:56;3.13;;;1.27;;
43809;SDS011;29440;48.208;11.162;2023-12-28T03:46:22;3.10;;;1.02;;
43809;SDS011;29440;48.208;11.162;2023-12-28T03:48:48;2.80;;;1.20;;
43809;SDS011;29440;48.208;11.162;2023-12-28T03:51:14;2.78;;;1.10;;
43809;SDS011;29440;48.208;11.162;2023-12-28T03:53:40;2.50;;;1.30;;
43809;SDS011;29440;48.208;11.162;2023-12-28T03:56:06;2.67;;;1.35;;
43809;SDS011;29440;48.208;11.162;2023-12-28T03:58:31;3.08;;;1.30;;
43809;SDS011;29440;48.208;11.162;2023-12-28T04:00:57;3.95;;;2.33;;
43809;SDS011;29440;48.208;11.162;2023-12-28T04:03:23;2.70;;;1.40;;
43809;SDS011;29440;48.208;11.162;2023-12-28T04:05:48;5.57;;;1.40;;
43809;SDS011;29440;48.208;11.162;2023-12-28T04:08:15;3.92;;;1.50;;
43809;SDS011;29440;48.208;11.162;2023-12-28T04:10:40;3.40;;;1.10;;
43809;SDS011;29440;48.208;11.162;2023-12-28T04:13:06;3.28;;;1.33;;
43809;SDS011;29440;48.208;11.162;2023-12-28T04:15:31;2.20;;;0.93;;
43809;SDS011;29440;48.208;11.162;2023-12-28T04:17:57;3.40;;;1.55;;
43809;SDS011;29440;48.208;11.162;2023-12-28T04:20:23;3.95;;;1.55;;
43809;SDS011;29440;48.208;11.162;2023-12-28T04:22:48;3.08;;;1.58;;
43809;SDS011;29440;48.208;11.162;2023-12-28T04:25:14;3.10;;;1.50;;
43809;SDS011;29440;48.208;11.162;2023-12-28T04:27:41;5.40;;;1.40;;
43809;SDS011;29440;48.208;11.162;2023-12-28T04:30:07;2.72;;;1.30;;
43809;SDS011;29440;48.208;11.162;2023-12-28T04:32:36;3.90;;;1.40;;
43809;SDS011;29440;48.208;11.162;2023-12-28T04:35:02;2.65;;;0.90;;
43809;SDS011;29440;48.208;11.162;2023-12-28T04:37:28;5.53;;;1.05;;
43809;SDS011;29440;48.208;11.162;2023-12-28T04:39:55;4.60;;;2.15;;
43809;SDS011;29440;48.208;11.162;2023-12-28T04:42:22;4.05;;;2.03;;
43809;SDS011;29440;48.208;11.162;2023-12-28T04:44:47;3.15;;;1.30;;
43809;SDS011;29440;48.208;11.162;2023-12-28T04:47:13;3.33;;;1.60;;
43809;SDS011;29440;48.208;11.162;2023-12-28T04:49:38;2.20;;;1.33;;
43809;SDS011;29440;48.208;11.162;2023-12-28T04:52:04;2.75;;;1.42;;
43809;SDS011;29440;48.208;11.162;2023-12-28T04:54:30;2.28;;;1.13;;
43809;SDS011;29440;48.208;11.162;2023-12-28T04:56:57;1.00;;;0.80;;
43809;SDS011;29440;48.208;11.162;2023-12-28T04:59:23;2.55;;;0.90;;
43809;SDS011;29440;48.208;11.162;2023-12-28T05:01:48;3.25;;;0.80;;
43809;SDS011;29440;48.208;11.162;2023-12-28T05:04:14;1.17;;;0.90;;
43809;SDS011;29440;48.208;11.162;2023-12-28T05:06:39;3.03;;;1.38;;
43809;SDS011;29440;48.208;11.162;2023-12-28T05:09:05;3.05;;;1.30;;
43809;SDS011;29440;48.208;11.162;2023-12-28T05:11:30;2.63;;;1.27;;
43809;SDS011;29440;48.208;11.162;2023-12-28T05:13:56;2.85;;;1.33;;
43809;SDS011;29440;48.208;11.162;2023-12-28T05:16:21;3.00;;;1.20;;
43809;SDS011;29440;48.208;11.162;2023-12-28T05:18:47;3.50;;;1.05;;
43809;SDS011;29440;48.208;11.162;2023-12-28T05:21:13;4.13;;;1.42;;
43809;SDS011;29440;48.208;11.162;2023-12-28T05:23:38;2.45;;;1.20;;
43809;SDS011;29440;48.208;11.162;2023-12-28T05:26:04;4.63;;;1.35;;
43809;SDS011;29440;48.208;11.162;2023-12-28T05:28:31;2.45;;;1.00;;
43809;SDS011;29440;48.208;11.162;2023-12-28T05:30:56;2.13;;;0.88;;
43809;SDS011;29440;48.208;11.162;2023-12-28T05:33:24;2.58;;;1.08;;
43809;SDS011;29440;48.208;11.162;2023-12-28T05:35:50;1.67;;;0.75;;
43809;SDS011;29440;48.208;11.162;2023-12-28T05:38:15;3.13;;;0.90;;
43809;SDS011;29440;48.208;11.162;2023-12-28T05:40:41;1.65;;;0.70;;
43809;SDS011;29440;48.208;11.162;2023-12-28T05:43:06;1.30;;;0.50;;
43809;SDS011;29440;48.208;11.162;2023-12-28T05:45:32;2.55;;;0.40;;
43809;SDS011;29440;48.208;11.162;2023-12-28T05:47:57;0.82;;;0.40;;
43809;SDS011;29440;48.208;11.162;2023-12-28T05:50:23;2.65;;;0.60;;
43809;SDS011;29440;48.208;11.162;2023-12-28T05:52:48;1.15;;;0.60;;
43809;SDS011;29440;48.208;11.162;2023-12-28T05:55:14;4.20;;;0.77;;
43809;SDS011;29440;48.208;11.162;2023-12-28T05:57:39;1.98;;;0.70;;
43809;SDS011;29440;48.208;11.162;2023-12-28T06:00:05;2.42;;;0.80;;
43809;SDS011;29440;48.208;11.162;2023-12-28T06:02:31;3.38;;;0.90;;
43809;SDS011;29440;48.208;11.162;2023-12-28T06:04:57;2.72;;;0.98;;
43809;SDS011;29440;48.208;11.162;2023-12-28T06:07:23;1.85;;;0.73;;
43809;SDS011;29440;48.208;11.162;2023-12-28T06:09:48;1.17;;;0.55;;
43809;SDS011;29440;48.208;11.162;2023-12-28T06:12:14;3.05;;;0.93;;
43809;SDS011;29440;48.208;11.162;2023-12-28T06:14:39;1.25;;;0.70;;
43809;SDS011;29440;48.208;11.162;2023-12-28T06:17:05;2.90;;;0.93;;
43809;SDS011;29440;48.208;11.162;2023-12-28T06:19:31;1.23;;;0.60;;
43809;SDS011;29440;48.208;11.162;2023-12-28T06:21:57;1.58;;;0.70;;
43809;SDS011;29440;48.208;11.162;2023-12-28T06:24:23;1.17;;;0.77;;
43809;SDS011;29440;48.208;11.162;2023-12-28T06:26:49;2.70;;;0.85;;
43809;SDS011;29440;48.208;11.162;2023-12-28T06:29:15;5.07;;;2.05;;
43809;SDS011;29440;48.208;11.162;2023-12-28T06:31:41;3.20;;;1.45;;
43809;SDS011;29440;48.208;11.162;2023-12-28T06:34:07;3.17;;;1.38;;
43809;SDS011;29440;48.208;11.162;2023-12-28T06:36:33;6.13;;;2.00;;
43809;SDS011;29440;48.208;11.162;2023-12-28T06:38:59;10.23;;;5.10;;
43809;SDS011;29440;48.208;11.162;2023-12-28T06:41:25;5.53;;;2.55;;
43809;SDS011;29440;48.208;11.162;2023-12-28T06:43:51;2.80;;;1.17;;
43809;SDS011;29440;48.208;11.162;2023-12-28T06:46:17;5.43;;;1.00;;
43809;SDS011;29440;48.208;11.162;2023-12-28T06:48:43;1.70;;;0.80;;
43809;SDS011;29440;48.208;11.162;2023-12-28T06:51:09;2.50;;;1.00;;
43809;SDS011;29440;48.208;11.162;2023-12-28T06:53:40;5.38;;;2.60;;
43809;SDS011;29440;48.208;11.162;2023-12-28T06:56:06;2.90;;;1.50;;
43809;SDS011;29440;48.208;11.162;2023-12-28T06:58:32;16.02;;;5.45;;
43809;SDS011;29440;48.208;11.162;2023-12-28T07:00:58;9.45;;;3.47;;
43809;SDS011;29440;48.208;11.162;2023-12-28T07:03:23;4.57;;;1.65;;
43809;SDS011;29440;48.208;11.162;2023-12-28T07:05:50;3.67;;;1.58;;
43809;SDS011;29440;48.208;11.162;2023-12-28T07:08:16;3.10;;;1.10;;
43809;SDS011;29440;48.208;11.162;2023-12-28T07:10:41;2.67;;;0.98;;
43809;SDS011;29440;48.208;11.162;2023-12-28T07:13:07;7.13;;;1.95;;
43809;SDS011;29440;48.208;11.162;2023-12-28T07:15:33;2.50;;;0.80;;
43809;SDS011;29440;48.208;11.162;2023-12-28T07:17:59;4.88;;;2.28;;
43809;SDS011;29440;48.208;11.162;2023-12-28T07:20:24;4.28;;;2.60;;
43809;SDS011;29440;48.208;11.162;2023-12-28T07:22:50;6.97;;;2.67;;
43809;SDS011;29440;48.208;11.162;2023-12-28T07:25:16;3.83;;;2.10;;
43809;SDS011;29440;48.208;11.162;2023-12-28T07:27:41;2.05;;;1.60;;
43809;SDS011;29440;48.208;11.162;2023-12-28T07:30:07;3.58;;;1.75;;
43809;SDS011;29440;48.208;11.162;2023-12-28T07:32:33;2.95;;;1.35;;
43809;SDS011;29440;48.208;11.162;2023-12-28T07:34:59;4.50;;;1.50;;
43809;SDS011;29440;48.208;11.162;2023-12-28T07:37:25;2.50;;;1.00;;
43809;SDS011;29440;48.208;11.162;2023-12-28T07:39:50;2.53;;;0.88;;
43809;SDS011;29440;48.208;11.162;2023-12-28T07:42:18;2.05;;;1.00;;
43809;SDS011;29440;48.208;11.162;2023-12-28T07:44:43;2.38;;;0.68;;
43809;SDS011;29440;48.208;11.162;2023-12-28T07:47:09;4.03;;;0.82;;
43809;SDS011;29440;48.208;11.162;2023-12-28T07:49:36;0.93;;;0.50;;
43809;SDS011;29440;48.208;11.162;2023-12-28T07:52:02;1.02;;;0.68;;
43809;SDS011;29440;48.208;11.162;2023-12-28T07:54:27;1.48;;;0.60;;
43809;SDS011;29440;48.208;11.162;2023-12-28T07:56:53;4.53;;;1.15;;
43809;SDS011;29440;48.208;11.162;2023-12-28T07:59:18;3.38;;;1.75;;
43809;SDS011;29440;48.208;11.162;2023-12-28T08:01:44;1.17;;;0.50;;
43809;SDS011;29440;48.208;11.162;2023-12-28T08:04:10;3.25;;;0.95;;
43809;SDS011;29440;48.208;11.162;2023-12-28T08:06:36;2.92;;;1.40;;
43809;SDS011;29440;48.208;11.162;2023-12-28T08:09:01;3.70;;;1.52;;
43809;SDS011;29440;48.208;11.162;2023-12-28T08:11:27;1.85;;;1.02;;
43809;SDS011;29440;48.208;11.162;2023-12-28T08:13:53;2.15;;;0.90;;
43809;SDS011;29440;48.208;11.162;2023-12-28T08:16:19;3.42;;;0.90;;
43809;SDS011;29440;48.208;11.162;2023-12-28T08:18:44;14.25;;;6.57;;
43809;SDS011;29440;48.208;11.162;2023-12-28T08:21:10;4.50;;;2.67;;
43809;SDS011;29440;48.208;11.162;2023-12-28T08:23:36;3.33;;;1.08;;
43809;SDS011;29440;48.208;11.162;2023-12-28T08:26:01;2.45;;;1.63;;
43809;SDS011;29440;48.208;11.162;2023-12-28T08:28:27;11.23;;;8.27;;
43809;SDS011;29440;48.208;11.162;2023-12-28T08:30:53;7.50;;;3.97;;
43809;SDS011;29440;48.208;11.162;2023-12-28T08:33:20;4.53;;;2.78;;
43809;SDS011;29440;48.208;11.162;2023-12-28T08:35:46;3.22;;;0.85;;
43809;SDS011;29440;48.208;11.162;2023-12-28T08:38:11;3.75;;;2.17;;
43809;SDS011;29440;48.208;11.162;2023-12-28T08:40:37;2.00;;;0.90;;
43809;SDS011;29440;48.208;11.162;2023-12-28T08:43:02;3.67;;;1.42;;
43809;SDS011;29440;48.208;11.162;2023-12-28T08:45:28;0.95;;;0.68;;
43809;SDS011;29440;48.208;11.162;2023-12-28T08:47:54;0.80;;;0.60;;
43809;SDS011;29440;48.208;11.162;2023-12-28T08:50:19;1.48;;;0.70;;
43809;SDS011;29440;48.208;11.162;2023-12-28T08:52:45;2.50;;;0.60;;
43809;SDS011;29440;48.208;11.162;2023-12-28T08:55:10;5.57;;;0.50;;
43809;SDS011;29440;48.208;11.162;2023-12-28T08:57:36;3.15;;;0.50;;
43809;SDS011;29440;48.208;11.162;2023-12-28T09:00:01;2.13;;;0.75;;
43809;SDS011;29440;48.208;11.162;2023-12-28T09:02:30;2.88;;;1.42;;
43809;SDS011;29440;48.208;11.162;2023-12-28T09:04:56;1.60;;;0.73;;
43809;SDS011;29440;48.208;11.162;2023-12-28T09:07:23;2.05;;;0.80;;
43809;SDS011;29440;48.208;11.162;2023-12-28T09:09:49;2.00;;;0.60;;
43809;SDS011;29440;48.208;11.162;2023-12-28T09:12:14;3.03;;;0.50;;
43809;SDS011;29440;48.208;11.162;2023-12-28T09:14:40;2.08;;;0.80;;
43809;SDS011;29440;48.208;11.162;2023-12-28T09:17:06;1.50;;;0.65;;
43809;SDS011;29440;48.208;11.162;2023-12-28T09:19:31;1.60;;;0.70;;
43809;SDS011;29440;48.208;11.162;2023-12-28T09:21:57;1.73;;;0.70;;
43809;SDS011;29440;48.208;11.162;2023-12-28T09:24:23;1.98;;;0.70;;
43809;SDS011;29440;48.208;11.162;2023-12-28T09:26:48;1.23;;;0.60;;
43809;SDS011;29440;48.208;11.162;2023-12-28T09:29:14;1.45;;;0.55;;
43809;SDS011;29440;48.208;11.162;2023-12-28T09:31:39;2.53;;;0.90;;
43809;SDS011;29440;48.208;11.162;2023-12-28T09:34:05;3.13;;;1.20;;
43809;SDS011;29440;48.208;11.162;2023-12-28T09:36:31;2.05;;;1.00;;
43809;SDS011;29440;48.208;11.162;2023-12-28T09:38:57;1.35;;;0.70;;
43809;SDS011;29440;48.208;11.162;2023-12-28T09:41:25;1.42;;;0.70;;
43809;SDS011;29440;48.208;11.162;2023-12-28T09:44:34;1.88;;;0.70;;
43809;SDS011;29440;48.208;11.162;2023-12-28T09:46:42;1.65;;;0.70;;
43809;SDS011;29440;48.208;11.162;2023-12-28T09:49:10;2.22;;;0.80;;
43809;SDS011;29440;48.208;11.162;2023-12-28T09:51:36;2.25;;;0.90;;
43809;SDS011;29440;48.208;11.162;2023-12-28T09:54:03;1.98;;;1.13;;
43809;SDS011;29440;48.208;11.162;2023-12-28T09:56:29;1.83;;;0.60;;
43809;SDS011;29440;48.208;11.162;2023-12-28T09:58:56;4.00;;;0.80;;
43809;SDS011;29440;48.208;11.162;2023-12-28T10:01:22;2.38;;;0.98;;
43809;SDS011;29440;48.208;11.162;2023-12-28T10:03:48;3.83;;;0.63;;
43809;SDS011;29440;48.208;11.162;2023-12-28T10:06:14;2.20;;;0.82;;
43809;SDS011;29440;48.208;11.162;2023-12-28T10:08:44;5.05;;;1.35;;
43809;SDS011;29440;48.208;11.162;2023-12-28T10:11:17;14.95;;;6.88;;
43809;SDS011;29440;48.208;11.162;2023-12-28T10:13:43;10.20;;;4.57;;
43809;SDS011;29440;48.208;11.162;2023-12-28T10:16:11;3.53;;;2.10;;
43809;SDS011;29440;48.208;11.162;2023-12-28T10:18:40;4.50;;;1.83;;
43809;SDS011;29440;48.208;11.162;2023-12-28T10:21:07;6.35;;;2.90;;
43809;SDS011;29440;48.208;11.162;2023-12-28T10:23:33;4.38;;;2.05;;
43809;SDS011;29440;48.208;11.162;2023-12-28T10:25:59;3.70;;;0.98;;
43809;SDS011;29440;48.208;11.162;2023-12-28T10:28:24;1.88;;;0.70;;
43809;SDS011;29440;48.208;11.162;2023-12-28T10:30:54;4.30;;;0.90;;
43809;SDS011;29440;48.208;11.162;2023-12-28T10:33:23;3.25;;;1.92;;
43809;SDS011;29440;48.208;11.162;2023-12-28T10:35:49;4.88;;;1.10;;
43809;SDS011;29440;48.208;11.162;2023-12-28T10:38:16;1.27;;;0.70;;
43809;SDS011;29440;48.208;11.162;2023-12-28T10:40:42;2.90;;;0.90;;
43809;SDS011;29440;48.208;11.162;2023-12-28T10:43:11;2.50;;;0.90;;
43809;SDS011;29440;48.208;11.162;2023-12-28T10:45:39;4.45;;;1.63;;
43809;SDS011;29440;48.208;11.162;2023-12-28T10:50:39;2.70;;;1.00;;
43809;SDS011;29440;48.208;11.162;2023-12-28T10:53:27;3.47;;;1.10;;
43809;SDS011;29440;48.208;11.162;2023-12-28T10:58:39;2.65;;;0.88;;
43809;SDS011;29440;48.208;11.162;2023-12-28T11:01:24;1.27;;;0.70;;
43809;SDS011;29440;48.208;11.162;2023-12-28T11:07:02;2.13;;;0.80;;
43809;SDS011;29440;48.208;11.162;2023-12-28T11:09:30;2.60;;;1.25;;
43809;SDS011;29440;48.208;11.162;2023-12-28T11:11:59;2.45;;;1.15;;
43809;SDS011;29440;48.208;11.162;2023-12-28T11:14:27;2.33;;;1.40;;
43809;SDS011;29440;48.208;11.162;2023-12-28T11:16:53;5.60;;;2.38;;
43809;SDS011;29440;48.208;11.162;2023-12-28T11:19:20;5.85;;;3.03;;
43809;SDS011;29440;48.208;11.162;2023-12-28T11:21:50;6.53;;;3.58;;
43809;SDS011;29440;48.208;11.162;2023-12-28T11:24:17;3.75;;;2.10;;
43809;SDS011;29440;48.208;11.162;2023-12-28T11:26:43;4.35;;;2.10;;
43809;SDS011;29440;48.208;11.162;2023-12-28T11:29:09;7.90;;;3.75;;
43809;SDS011;29440;48.208;11.162;2023-12-28T11:31:35;5.32;;;2.53;;
43809;SDS011;29440;48.208;11.162;2023-12-28T11:34:01;6.35;;;2.40;;
43809;SDS011;29440;48.208;11.162;2023-12-28T11:36:36;3.97;;;1.83;;
43809;SDS011;29440;48.208;11.162;2023-12-28T11:39:08;5.80;;;2.15;;
43809;SDS011;29440;48.208;11.162;2023-12-28T11:41:38;5.95;;;2.40;;
43809;SDS011;29440;48.208;11.162;2023-12-28T11:44:04;4.63;;;1.55;;
43809;SDS011;29440;48.208;11.162;2023-12-28T11:46:31;4.35;;;1.70;;
43809;SDS011;29440;48.208;11.162;2023-12-28T11:49:04;6.20;;;3.10;;
43809;SDS011;29440;48.208;11.162;2023-12-28T11:51:30;8.15;;;4.20;;
43809;SDS011;29440;48.208;11.162;2023-12-28T11:53:57;2.70;;;1.13;;
43809;SDS011;29440;48.208;11.162;2023-12-28T11:56:24;4.82;;;1.90;;
43809;SDS011;29440;48.208;11.162;2023-12-28T11:58:50;3.67;;;1.65;;
43809;SDS011;29440;48.208;11.162;2023-12-28T12:01:16;3.50;;;1.35;;
43809;SDS011;29440;48.208;11.162;2023-12-28T12:03:42;3.58;;;1.67;;
43809;SDS011;29440;48.208;11.162;2023-12-28T12:06:08;4.15;;;1.90;;
43809;SDS011;29440;48.208;11.162;2023-12-28T12:08:33;5.75;;;2.70;;
43809;SDS011;29440;48.208;11.162;2023-12-28T12:10:59;2.75;;;1.35;;
43809;SDS011;29440;48.208;11.162;2023-12-28T12:13:30;3.83;;;1.83;;
43809;SDS011;29440;48.208;11.162;2023-12-28T12:15:56;1.75;;;1.00;;
43809;SDS011;29440;48.208;11.162;2023-12-28T12:18:22;1.25;;;0.65;;
43809;SDS011;29440;48.208;11.162;2023-12-28T12:20:48;1.67;;;0.60;;
43809;SDS011;29440;48.208;11.162;2023-12-28T12:23:14;1.60;;;0.55;;
43809;SDS011;29440;48.208;11.162;2023-12-28T12:25:40;0.80;;;0.43;;
43809;SDS011;29440;48.208;11.162;2023-12-28T12:28:06;1.58;;;0.60;;
43809;SDS011;29440;48.208;11.162;2023-12-28T12:30:32;3.50;;;0.57;;
43809;SDS011;29440;48.208;11.162;2023-12-28T12:32:58;1.13;;;0.50;;
43809;SDS011;29440;48.208;11.162;2023-12-28T12:35:24;1.00;;;0.60;;
43809;SDS011;29440;48.208;11.162;2023-12-28T12:37:50;1.25;;;0.70;;
43809;SDS011;29440;48.208;11.162;2023-12-28T12:40:16;1.38;;;0.70;;
43809;SDS011;29440;48.208;11.162;2023-12-28T12:42:51;1.92;;;0.70;;
43809;SDS011;29440;48.208;11.162;2023-12-28T12:45:18;1.20;;;0.60;;
43809;SDS011;29440;48.208;11.162;2023-12-28T12:47:44;3.15;;;0.80;;
43809;SDS011;29440;48.208;11.162;2023-12-28T12:50:11;1.75;;;0.57;;
43809;SDS011;29440;48.208;11.162;2023-12-28T12:52:36;1.65;;;0.47;;
43809;SDS011;29440;48.208;11.162;2023-12-28T12:55:03;1.20;;;0.60;;
43809;SDS011;29440;48.208;11.162;2023-12-28T12:57:29;1.63;;;0.80;;
43809;SDS011;29440;48.208;11.162;2023-12-28T12:59:55;2.55;;;0.80;;
43809;SDS011;29440;48.208;11.162;2023-12-28T13:02:24;1.50;;;0.80;;
43809;SDS011;29440;48.208;11.162;2023-12-28T13:04:52;1.55;;;0.70;;
43809;SDS011;29440;48.208;11.162;2023-12-28T13:07:21;4.60;;;1.30;;
43809;SDS011;29440;48.208;11.162;2023-12-28T13:09:46;2.75;;;1.27;;
43809;SDS011;29440;48.208;11.162;2023-12-28T13:12:12;1.98;;;0.70;;
43809;SDS011;29440;48.208;11.162;2023-12-28T13:14:38;1.27;;;0.70;;
43809;SDS011;29440;48.208;11.162;2023-12-28T13:17:03;2.05;;;0.90;;
43809;SDS011;29440;48.208;11.162;2023-12-28T13:19:29;1.52;;;0.75;;
43809;SDS011;29440;48.208;11.162;2023-12-28T13:21:54;1.58;;;0.50;;
43809;SDS011;29440;48.208;11.162;2023-12-28T13:24:20;2.35;;;0.80;;
43809;SDS011;29440;48.208;11.162;2023-12-28T13:26:46;1.80;;;0.82;;
43809;SDS011;29440;48.208;11.162;2023-12-28T13:29:11;1.80;;;1.00;;
43809;SDS011;29440;48.208;11.162;2023-12-28T13:31:37;3.30;;;1.00;;
43809;SDS011;29440;48.208;11.162;2023-12-28T13:34:03;1.52;;;0.75;;
43809;SDS011;29440;48.208;11.162;2023-12-28T13:36:28;2.17;;;0.80;;
43809;SDS011;29440;48.208;11.162;2023-12-28T13:38:54;4.78;;;1.85;;
43809;SDS011;29440;48.208;11.162;2023-12-28T13:41:20;5.05;;;2.25;;
43809;SDS011;29440;48.208;11.162;2023-12-28T13:43:46;3.25;;;1.55;;
43809;SDS011;29440;48.208;11.162;2023-12-28T13:46:11;3.38;;;1.30;;
43809;SDS011;29440;48.208;11.162;2023-12-28T13:48:37;2.65;;;0.98;;
43809;SDS011;29440;48.208;11.162;2023-12-28T13:51:06;3.15;;;1.65;;
43809;SDS011;29440;48.208;11.162;2023-12-28T13:53:31;3.33;;;1.50;;
43809;SDS011;29440;48.208;11.162;2023-12-28T13:56:00;1.83;;;0.90;;
43809;SDS011;29440;48.208;11.162;2023-12-28T13:58:26;2.97;;;1.02;;
43809;SDS011;29440;48.208;11.162;2023-12-28T14:00:51;1.85;;;0.77;;
43809;SDS011;29440;48.208;11.162;2023-12-28T14:03:17;2.20;;;0.80;;
43809;SDS011;29440;48.208;11.162;2023-12-28T14:05:43;3.10;;;0.90;;
43809;SDS011;29440;48.208;11.162;2023-12-28T14:08:09;2.05;;;0.82;;
43809;SDS011;29440;48.208;11.162;2023-12-28T14:10:35;4.18;;;2.65;;
43809;SDS011;29440;48.208;11.162;2023-12-28T14:13:03;4.80;;;4.35;;
43809;SDS011;29440;48.208;11.162;2023-12-28T14:15:30;2.40;;;1.55;;
43809;SDS011;29440;48.208;11.162;2023-12-28T14:17:56;2.53;;;1.00;;
43809;SDS011;29440;48.208;11.162;2023-12-28T14:20:22;4.65;;;1.52;;
43809;SDS011;29440;48.208;11.162;2023-12-28T14:22:47;6.78;;;1.30;;
43809;SDS011;29440;48.208;11.162;2023-12-28T14:25:13;3.42;;;1.20;;
43809;SDS011;29440;48.208;11.162;2023-12-28T14:27:39;11.50;;;3.80;;
43809;SDS011;29440;48.208;11.162;2023-12-28T14:30:05;18.50;;;9.20;;
43809;SDS011;29440;48.208;11.162;2023-12-28T14:32:34;19.83;;;8.15;;
43809;SDS011;29440;48.208;11.162;2023-12-28T14:35:00;20.30;;;8.82;;
43809;SDS011;29440;48.208;11.162;2023-12-28T14:37:26;12.20;;;4.95;;
43809;SDS011;29440;48.208;11.162;2023-12-28T14:39:51;7.72;;;2.88;;
43809;SDS011;29440;48.208;11.162;2023-12-28T14:42:17;14.52;;;5.22;;
43809;SDS011;29440;48.208;11.162;2023-12-28T14:44:42;8.55;;;3.85;;